createdAt,value
2023-03-12T00:00:18.743Z,7.45
2023-03-12T00:01:24.024Z,8.05
2023-03-12T00:02:26.625Z,7.32
2023-03-12T00:03:29.038Z,6.75
2023-03-12T00:04:32.606Z,7.75
2023-03-12T00:05:38.130Z,7.50
2023-03-12T00:06:40.425Z,6.97
2023-03-12T00:07:42.665Z,7.97
2023-03-12T00:08:45.277Z,6.53
2023-03-12T00:09:47.535Z,7.28
2023-03-12T00:10:49.789Z,6.45
2023-03-12T00:11:52.040Z,6.78
2023-03-12T00:12:54.718Z,6.68
2023-03-12T00:13:58.702Z,6.35
2023-03-12T00:15:03.007Z,6.47
2023-03-12T00:16:14.253Z,7.30
2023-03-12T00:17:21.952Z,6.75
2023-03-12T00:18:24.131Z,7.13
2023-03-12T00:19:26.737Z,7.93
2023-03-12T00:20:29.813Z,8.43
2023-03-12T00:21:32.454Z,7.97
2023-03-12T00:22:34.813Z,9.38
2023-03-12T00:23:37.509Z,8.93
2023-03-12T00:24:39.979Z,10.27
2023-03-12T00:25:46.631Z,58.85
2023-03-12T00:26:49.309Z,98.90
2023-03-12T00:27:51.676Z,18.00
2023-03-12T00:29:01.030Z,63.55
2023-03-12T00:30:05.116Z,35.33
2023-03-12T00:31:18.242Z,10.45
2023-03-12T00:32:23.970Z,7.72
2023-03-12T00:33:27.442Z,85.55
2023-03-12T00:34:30.141Z,21.67
2023-03-12T00:35:40.448Z,16.63
2023-03-12T00:36:43.232Z,11.93
2023-03-12T00:37:45.825Z,13.00
2023-03-12T00:38:48.414Z,78.85
2023-03-12T00:39:51.198Z,14.40
2023-03-12T00:40:54.036Z,63.05
2023-03-12T00:42:00.284Z,16.63
2023-03-12T00:43:02.809Z,54.83
2023-03-12T00:44:08.997Z,34.58
2023-03-12T00:45:11.522Z,47.65
2023-03-12T00:46:13.923Z,123.95
2023-03-12T00:47:16.234Z,10.25
2023-03-12T00:48:18.440Z,81.30
2023-03-12T00:49:20.659Z,134.57
2023-03-12T00:50:23.058Z,182.35
2023-03-12T00:51:25.510Z,33.75
2023-03-12T00:52:27.865Z,41.75
2023-03-12T00:53:30.213Z,38.33
2023-03-12T00:54:32.559Z,48.97
2023-03-12T00:55:35.091Z,134.95
2023-03-12T00:56:37.353Z,126.05
2023-03-12T00:57:39.595Z,79.55
2023-03-12T00:58:42.749Z,11.90
2023-03-12T00:59:45.093Z,146.77
2023-03-12T01:00:47.560Z,133.15
2023-03-12T01:01:51.077Z,27.33
2023-03-12T01:02:53.336Z,8.80
2023-03-12T01:03:55.985Z,36.13
2023-03-12T01:04:58.336Z,8.85
2023-03-12T01:06:00.883Z,9.80
2023-03-12T01:07:03.203Z,7.30
2023-03-12T01:08:05.641Z,71.38
2023-03-12T01:09:09.045Z,113.10
2023-03-12T01:10:14.837Z,22.95
2023-03-12T01:11:19.952Z,27.00
2023-03-12T01:12:22.384Z,7.88
2023-03-12T01:13:25.127Z,6.55
2023-03-12T01:14:27.393Z,105.88
2023-03-12T01:15:30.007Z,86.25
2023-03-12T01:16:32.861Z,101.53
2023-03-12T01:17:35.221Z,23.90
2023-03-12T01:18:37.663Z,10.82
2023-03-12T01:19:39.961Z,7.60
2023-03-12T01:20:42.328Z,7.22
2023-03-12T01:21:44.759Z,52.28
2023-03-12T01:22:47.326Z,34.58
2023-03-12T01:23:50.580Z,45.42
2023-03-12T01:24:53.033Z,12.80
2023-03-12T01:25:55.662Z,8.38
2023-03-12T01:26:58.436Z,9.35
2023-03-12T01:28:00.981Z,61.83
2023-03-12T01:29:03.293Z,17.05
2023-03-12T01:30:06.147Z,24.88
2023-03-12T01:31:10.299Z,38.33
2023-03-12T01:32:12.706Z,43.72
2023-03-12T01:33:16.692Z,19.92
2023-03-12T01:34:19.169Z,11.65
2023-03-12T01:35:21.811Z,6.85
2023-03-12T01:36:27.014Z,7.47
2023-03-12T01:37:29.523Z,6.13
2023-03-12T01:38:31.818Z,20.08
2023-03-12T01:39:34.043Z,7.95
2023-03-12T01:40:36.623Z,6.32
2023-03-12T01:41:39.168Z,5.82
2023-03-12T01:42:41.462Z,5.47
2023-03-12T01:43:43.783Z,4.95
2023-03-12T01:44:51.735Z,5.68
2023-03-12T01:46:24.460Z,6.20
2023-03-12T01:47:31.935Z,6.95
2023-03-12T01:48:40.035Z,6.90
2023-03-12T01:49:42.677Z,6.85
2023-03-12T01:50:45.579Z,6.40
2023-03-12T01:52:04.584Z,6.13
2023-03-12T01:53:13.647Z,6.70
2023-03-12T01:54:30.810Z,6.70
2023-03-12T01:55:33.131Z,6.20
2023-03-12T01:56:37.780Z,13.27
2023-03-12T01:57:48.555Z,11.98
2023-03-12T01:58:54.734Z,6.32
2023-03-12T02:00:01.884Z,5.90
2023-03-12T02:01:04.615Z,8.98
2023-03-12T02:02:08.127Z,7.45
2023-03-12T02:03:11.170Z,6.22
2023-03-12T02:04:17.778Z,5.93
2023-03-12T02:05:43.716Z,6.70
2023-03-12T02:06:57.684Z,6.25
2023-03-12T02:08:00.482Z,6.05
2023-03-12T02:09:05.921Z,6.55
2023-03-12T02:10:09.122Z,6.35
2023-03-12T02:11:11.498Z,6.85
2023-03-12T02:12:14.924Z,6.53
2023-03-12T02:13:17.475Z,9.27
2023-03-12T02:14:22.104Z,7.97
2023-03-12T02:15:24.428Z,7.65
2023-03-12T02:16:27.024Z,6.82
2023-03-12T02:17:30.372Z,7.30
2023-03-12T02:18:34.643Z,6.50
2023-03-12T02:19:52.321Z,6.63
2023-03-12T02:21:16.233Z,5.78
2023-03-12T02:22:21.030Z,5.30
2023-03-12T02:23:35.216Z,4.90
2023-03-12T02:25:03.624Z,5.38
2023-03-12T02:26:07.162Z,4.95
2023-03-12T02:27:12.131Z,5.20
2023-03-12T02:28:16.780Z,5.57
2023-03-12T02:29:19.125Z,5.45
2023-03-12T02:30:22.344Z,5.60
2023-03-12T02:31:29.172Z,5.63
2023-03-12T02:32:38.305Z,5.20
2023-03-12T02:33:41.315Z,5.53
2023-03-12T02:34:43.710Z,4.65
2023-03-12T02:35:47.718Z,4.85
2023-03-12T02:36:50.562Z,4.60
2023-03-12T02:37:55.811Z,4.95
2023-03-12T02:38:58.065Z,5.28
2023-03-12T02:40:10.759Z,4.75
2023-03-12T02:42:33.970Z,4.45
2023-03-12T02:43:36.696Z,4.93
2023-03-12T02:44:39.366Z,5.05
2023-03-12T02:45:41.755Z,5.00
2023-03-12T02:46:47.215Z,4.85
2023-03-12T02:47:49.754Z,4.85
2023-03-12T02:48:54.223Z,4.95
2023-03-12T02:49:56.530Z,5.43
2023-03-12T02:50:58.875Z,5.18
2023-03-12T02:52:02.505Z,5.13
2023-03-12T02:53:05.035Z,4.18
2023-03-12T02:54:08.093Z,3.88
2023-03-12T02:55:10.942Z,4.10
2023-03-12T02:56:13.190Z,4.45
2023-03-12T02:57:15.687Z,4.40
2023-03-12T02:58:18.085Z,4.97
2023-03-12T02:59:21.851Z,4.65
2023-03-12T03:02:13.026Z,4.85
2023-03-12T03:03:15.746Z,4.43
2023-03-12T03:04:17.942Z,4.22
2023-03-12T03:05:21.391Z,4.60
2023-03-12T03:06:24.172Z,4.40
2023-03-12T03:07:26.533Z,4.15
2023-03-12T03:08:29.731Z,4.30
2023-03-12T03:09:31.935Z,4.68
2023-03-12T03:10:34.285Z,4.18
2023-03-12T03:11:36.723Z,4.70
2023-03-12T03:12:40.895Z,5.00
2023-03-12T03:13:44.767Z,5.18
2023-03-12T03:14:47.673Z,4.65
2023-03-12T03:15:49.927Z,4.85
2023-03-12T03:16:52.865Z,5.20
2023-03-12T03:17:59.260Z,5.18
2023-03-12T03:19:02.236Z,4.78
2023-03-12T03:20:11.973Z,5.18
2023-03-12T03:21:16.632Z,5.10
2023-03-12T03:22:21.317Z,4.68
2023-03-12T03:23:24.027Z,4.95
2023-03-12T03:24:26.398Z,4.65
2023-03-12T03:25:28.919Z,4.82
2023-03-12T03:26:31.288Z,5.40
2023-03-12T03:27:33.547Z,4.70
2023-03-12T03:28:35.888Z,4.70
2023-03-12T03:29:38.368Z,5.35
2023-03-12T03:30:40.816Z,4.97
2023-03-12T03:31:43.646Z,5.28
2023-03-12T03:32:47.580Z,5.55
2023-03-12T03:33:51.195Z,4.95
2023-03-12T03:34:53.444Z,5.55
2023-03-12T03:35:57.191Z,6.10
2023-03-12T03:36:59.772Z,4.85
2023-03-12T03:38:02.565Z,5.43
2023-03-12T03:39:05.257Z,5.72
2023-03-12T03:40:11.857Z,5.90
2023-03-12T03:41:18.880Z,5.78
2023-03-12T03:42:21.683Z,5.53
2023-03-12T03:43:24.949Z,5.25
2023-03-12T03:44:27.369Z,5.30
2023-03-12T03:45:30.062Z,5.70
2023-03-12T03:46:32.307Z,4.93
2023-03-12T03:47:38.330Z,5.10
2023-03-12T03:48:41.461Z,5.05
2023-03-12T03:49:45.482Z,4.75
2023-03-12T03:50:47.905Z,4.97
2023-03-12T03:51:51.837Z,5.40
2023-03-12T03:53:02.189Z,5.05
2023-03-12T03:54:04.519Z,4.13
2023-03-12T03:55:07.104Z,4.57
2023-03-12T03:56:15.809Z,4.80
2023-03-12T03:57:24.141Z,4.72
2023-03-12T03:58:26.314Z,5.05
2023-03-12T03:59:28.785Z,5.00
2023-03-12T04:00:31.390Z,5.05
2023-03-12T04:01:33.677Z,5.40
2023-03-12T04:02:37.072Z,5.10
2023-03-12T04:03:39.313Z,4.55
2023-03-12T04:04:41.811Z,4.38
2023-03-12T04:05:45.277Z,5.13
2023-03-12T04:06:48.437Z,5.22
2023-03-12T04:07:53.536Z,5.25
2023-03-12T04:08:59.133Z,4.93
2023-03-12T04:10:04.633Z,5.40
2023-03-12T04:11:12.945Z,4.88
2023-03-12T04:12:15.326Z,4.50
2023-03-12T04:13:18.052Z,4.80
2023-03-12T04:14:20.308Z,4.78
2023-03-12T04:15:22.562Z,4.70
2023-03-12T04:16:25.515Z,4.50
2023-03-12T04:17:29.347Z,4.75
2023-03-12T04:18:32.501Z,4.75
2023-03-12T04:19:37.158Z,5.00
2023-03-12T04:20:40.968Z,4.32
2023-03-12T04:21:43.776Z,4.97
2023-03-12T04:22:47.472Z,4.85
2023-03-12T04:23:49.757Z,4.38
2023-03-12T04:24:52.858Z,5.05
2023-03-12T04:25:55.645Z,4.82
2023-03-12T04:26:59.072Z,4.80
2023-03-12T04:28:01.986Z,4.40
2023-03-12T04:29:04.307Z,4.40
2023-03-12T04:30:07.303Z,4.53
2023-03-12T04:31:11.551Z,4.55
2023-03-12T04:33:38.657Z,4.05
2023-03-12T04:34:41.420Z,4.53
2023-03-12T04:35:51.598Z,4.57
2023-03-12T04:36:54.038Z,4.13
2023-03-12T04:37:57.487Z,4.45
2023-03-12T04:39:01.556Z,4.78
2023-03-12T04:40:09.759Z,4.70
2023-03-12T04:41:14.505Z,4.75
2023-03-12T04:42:23.255Z,4.70
2023-03-12T04:43:25.948Z,4.60
2023-03-12T04:44:28.196Z,4.60
2023-03-12T04:45:30.508Z,4.97
2023-03-12T04:46:32.885Z,5.32
2023-03-12T04:47:35.243Z,5.15
2023-03-12T04:48:37.777Z,4.95
2023-03-12T04:49:40.249Z,4.18
2023-03-12T04:50:43.510Z,4.82
2023-03-12T04:51:46.010Z,5.18
2023-03-12T04:52:48.302Z,4.80
2023-03-12T04:53:51.465Z,5.22
2023-03-12T04:54:54.350Z,5.18
2023-03-12T04:55:56.985Z,4.97
2023-03-12T04:56:59.704Z,4.78
2023-03-12T04:58:02.405Z,5.97
2023-03-12T04:59:05.824Z,4.70
2023-03-12T05:00:14.867Z,5.13
2023-03-12T05:01:33.388Z,4.97
2023-03-12T05:02:39.429Z,5.07
2023-03-12T05:03:41.924Z,5.07
2023-03-12T05:04:44.441Z,5.22
2023-03-12T05:05:46.890Z,4.95
2023-03-12T05:06:49.454Z,5.13
2023-03-12T05:07:51.794Z,5.35
2023-03-12T05:08:54.196Z,5.38
2023-03-12T05:09:57.061Z,5.43
2023-03-12T05:10:59.279Z,4.65
2023-03-12T05:12:02.125Z,5.75
2023-03-12T05:13:04.660Z,5.28
2023-03-12T05:14:06.997Z,5.25
2023-03-12T05:15:09.589Z,5.00
2023-03-12T05:16:13.304Z,4.80
2023-03-12T05:17:16.364Z,4.63
2023-03-12T05:18:20.463Z,5.03
2023-03-12T05:19:23.083Z,5.47
2023-03-12T05:20:25.404Z,5.30
2023-03-12T05:21:27.870Z,5.05
2023-03-12T05:22:32.139Z,5.30
2023-03-12T05:23:35.956Z,5.05
2023-03-12T05:24:38.447Z,4.97
2023-03-12T05:25:41.100Z,6.38
2023-03-12T05:26:43.674Z,5.50
2023-03-12T05:27:50.366Z,4.65
2023-03-12T05:28:52.822Z,5.70
2023-03-12T05:29:56.705Z,4.93
2023-03-12T05:31:00.416Z,5.32
2023-03-12T05:32:03.391Z,5.20
2023-03-12T05:33:05.687Z,5.20
2023-03-12T05:34:07.943Z,8.35
2023-03-12T05:35:14.337Z,5.93
2023-03-12T05:36:18.349Z,5.95
2023-03-12T05:37:21.841Z,5.70
2023-03-12T05:38:25.555Z,5.72
2023-03-12T05:39:28.628Z,5.45
2023-03-12T05:40:34.848Z,5.75
2023-03-12T05:41:37.115Z,5.38
2023-03-12T05:42:48.437Z,5.55
2023-03-12T05:43:52.758Z,5.50
2023-03-12T05:44:57.391Z,5.50
2023-03-12T05:46:04.210Z,10.05
2023-03-12T05:47:09.162Z,6.47
2023-03-12T05:48:11.644Z,7.25
2023-03-12T05:49:14.096Z,7.55
2023-03-12T05:50:19.313Z,8.20
2023-03-12T05:51:22.167Z,7.35
2023-03-12T05:52:24.656Z,8.20
2023-03-12T05:53:29.342Z,7.10
2023-03-12T05:54:31.663Z,6.40
2023-03-12T05:55:38.414Z,7.40
2023-03-12T05:56:43.812Z,8.48
2023-03-12T05:57:46.131Z,7.53
2023-03-12T05:58:51.282Z,7.70
2023-03-12T05:59:54.601Z,6.85
2023-03-12T06:00:57.079Z,6.03
2023-03-12T06:01:59.615Z,5.88
2023-03-12T06:03:02.810Z,5.40
2023-03-12T06:04:05.685Z,6.18
2023-03-12T06:05:13.048Z,5.30
2023-03-12T06:06:16.262Z,4.93
2023-03-12T06:07:18.725Z,5.20
2023-03-12T06:08:22.202Z,5.80
2023-03-12T06:09:24.864Z,5.90
2023-03-12T06:10:29.131Z,5.72
2023-03-12T06:11:33.799Z,5.18
2023-03-12T06:12:38.294Z,7.00
2023-03-12T06:13:43.564Z,7.30
2023-03-12T06:14:46.213Z,6.63
2023-03-12T06:15:49.402Z,6.10
2023-03-12T06:16:54.563Z,5.82
2023-03-12T06:17:56.832Z,5.70
2023-03-12T06:19:02.166Z,5.70
2023-03-12T06:20:05.137Z,5.50
2023-03-12T06:21:16.130Z,5.60
2023-03-12T06:22:20.154Z,5.90
2023-03-12T06:23:23.996Z,5.53
2023-03-12T06:24:26.283Z,5.32
2023-03-12T06:25:44.948Z,5.53
2023-03-12T06:26:47.358Z,4.97
2023-03-12T06:27:49.648Z,5.50
2023-03-12T06:28:52.324Z,5.78
2023-03-12T06:29:54.718Z,5.50
2023-03-12T06:30:56.946Z,5.80
2023-03-12T06:31:59.205Z,6.60
2023-03-12T06:33:04.080Z,5.53
2023-03-12T06:34:06.611Z,5.70
2023-03-12T06:35:09.578Z,5.95
2023-03-12T06:36:12.434Z,5.55
2023-03-12T06:37:15.058Z,5.75
2023-03-12T06:38:17.592Z,5.72
2023-03-12T06:39:19.856Z,6.10
2023-03-12T06:40:22.129Z,6.03
2023-03-12T06:41:24.341Z,5.18
2023-03-12T06:42:26.567Z,5.90
2023-03-12T06:43:32.750Z,5.88
2023-03-12T06:44:35.026Z,5.15
2023-03-12T06:45:37.482Z,5.35
2023-03-12T06:46:42.738Z,5.53
2023-03-12T06:47:45.211Z,5.40
2023-03-12T06:48:47.957Z,5.68
2023-03-12T06:49:50.249Z,6.00
2023-03-12T06:50:52.700Z,5.97
2023-03-12T06:51:57.066Z,6.30
2023-03-12T06:52:59.469Z,7.75
2023-03-12T06:54:02.606Z,8.05
2023-03-12T06:55:06.975Z,10.13
2023-03-12T06:56:09.877Z,11.18
2023-03-12T06:57:12.211Z,12.18
2023-03-12T06:58:14.559Z,11.07
2023-03-12T06:59:20.711Z,8.50
2023-03-12T07:00:22.990Z,12.05
2023-03-12T07:01:25.365Z,13.32
2023-03-12T07:02:28.053Z,14.00
2023-03-12T07:03:30.373Z,16.50
2023-03-12T07:04:32.614Z,16.38
2023-03-12T07:05:34.897Z,15.10
2023-03-12T07:06:37.149Z,15.05
2023-03-12T07:07:39.478Z,14.15
2023-03-12T07:08:42.978Z,8.35
2023-03-12T07:09:45.347Z,8.20
2023-03-12T07:10:47.636Z,7.65
2023-03-12T07:11:50.071Z,6.03
2023-03-12T07:12:52.574Z,7.57
2023-03-12T07:13:54.908Z,5.50
2023-03-12T07:14:57.262Z,6.75
2023-03-12T07:15:59.561Z,7.25
2023-03-12T07:17:02.267Z,7.88
2023-03-12T07:18:10.769Z,7.82
2023-03-12T07:19:13.097Z,6.53
2023-03-12T07:20:15.291Z,7.00
2023-03-12T07:21:22.809Z,6.68
2023-03-12T07:22:25.166Z,6.35
2023-03-12T07:23:28.178Z,5.63
2023-03-12T07:24:30.600Z,6.07
2023-03-12T07:25:37.214Z,6.13
2023-03-12T07:26:39.973Z,5.65
2023-03-12T07:27:42.283Z,5.35
2023-03-12T07:28:45.107Z,5.43
2023-03-12T07:29:47.577Z,6.30
2023-03-12T07:30:50.706Z,6.20
2023-03-12T07:31:53.123Z,6.05
2023-03-12T07:32:55.492Z,6.32
2023-03-12T07:33:58.048Z,6.25
2023-03-12T07:35:00.593Z,6.10
2023-03-12T07:36:03.364Z,6.00
2023-03-12T07:37:05.670Z,6.10
2023-03-12T07:38:09.331Z,6.05
2023-03-12T07:39:11.563Z,5.93
2023-03-12T07:40:14.250Z,6.15
2023-03-12T07:41:16.970Z,6.25
2023-03-12T07:42:19.359Z,6.10
2023-03-12T07:43:23.803Z,6.68
2023-03-12T07:44:29.325Z,6.45
2023-03-12T07:45:31.784Z,8.10
2023-03-12T07:46:33.994Z,7.20
2023-03-12T07:47:36.360Z,7.07
2023-03-12T07:48:41.518Z,8.55
2023-03-12T07:49:48.181Z,6.90
2023-03-12T07:50:50.987Z,7.57
2023-03-12T07:51:53.653Z,9.05
2023-03-12T07:52:55.884Z,7.68
2023-03-12T07:53:58.132Z,9.38
2023-03-12T07:55:00.504Z,11.50
2023-03-12T07:56:03.152Z,12.63
2023-03-12T07:57:06.058Z,11.40
2023-03-12T07:58:09.110Z,15.00
2023-03-12T07:59:11.608Z,13.20
2023-03-12T08:00:15.334Z,11.48
2023-03-12T08:01:25.504Z,9.00
2023-03-12T08:02:30.335Z,8.00
2023-03-12T08:03:33.360Z,7.68
2023-03-12T08:04:35.951Z,10.93
2023-03-12T08:05:38.604Z,18.85
2023-03-12T08:06:42.901Z,7.63
2023-03-12T08:07:45.656Z,7.32
2023-03-12T08:08:48.093Z,6.85
2023-03-12T08:09:50.443Z,7.10
2023-03-12T08:10:55.022Z,7.22
2023-03-12T08:11:57.280Z,6.70
2023-03-12T08:12:59.591Z,6.28
2023-03-12T08:14:05.486Z,6.50
2023-03-12T08:15:12.805Z,6.32
2023-03-12T08:16:15.662Z,6.88
2023-03-12T08:17:18.289Z,7.10
2023-03-12T08:18:21.053Z,6.80
2023-03-12T08:19:23.281Z,7.07
2023-03-12T08:20:25.562Z,6.63
2023-03-12T08:21:27.882Z,6.65
2023-03-12T08:22:30.072Z,6.57
2023-03-12T08:23:32.379Z,6.43
2023-03-12T08:24:35.804Z,6.85
2023-03-12T08:25:38.142Z,7.10
2023-03-12T08:26:40.467Z,6.72
2023-03-12T08:27:43.100Z,7.00
2023-03-12T08:28:45.883Z,6.72
2023-03-12T08:29:48.267Z,6.18
2023-03-12T08:30:55.633Z,6.63
2023-03-12T08:32:04.966Z,6.60
2023-03-12T08:33:07.962Z,6.53
2023-03-12T08:34:10.245Z,6.97
2023-03-12T08:35:12.603Z,6.07
2023-03-12T08:36:15.103Z,7.00
2023-03-12T08:37:17.885Z,7.45
2023-03-12T08:38:20.385Z,7.57
2023-03-12T08:39:22.711Z,7.63
2023-03-12T08:40:25.092Z,7.05
2023-03-12T08:41:27.366Z,7.93
2023-03-12T08:42:29.709Z,7.78
2023-03-12T08:43:32.055Z,7.82
2023-03-12T08:44:34.835Z,8.13
2023-03-12T08:45:37.397Z,8.82
2023-03-12T08:46:40.026Z,9.60
2023-03-12T08:47:43.521Z,8.82
2023-03-12T08:48:45.812Z,9.15
2023-03-12T08:49:48.273Z,9.80
2023-03-12T08:50:50.916Z,9.23
2023-03-12T08:51:53.316Z,7.53
2023-03-12T08:52:56.129Z,7.95
2023-03-12T08:54:01.041Z,7.65
2023-03-12T08:55:03.904Z,8.77
2023-03-12T08:56:06.368Z,8.10
2023-03-12T08:57:08.648Z,9.07
2023-03-12T08:58:11.057Z,9.00
2023-03-12T08:59:14.147Z,8.02
2023-03-12T09:00:17.905Z,8.50
2023-03-12T09:01:20.354Z,9.35
2023-03-12T09:02:22.617Z,9.38
2023-03-12T09:03:25.832Z,8.90
2023-03-12T09:04:31.233Z,8.38
2023-03-12T09:05:33.528Z,8.73
2023-03-12T09:06:36.198Z,9.02
2023-03-12T09:07:38.643Z,8.85
2023-03-12T09:08:41.297Z,8.65
2023-03-12T09:09:43.842Z,8.63
2023-03-12T09:10:50.181Z,7.97
2023-03-12T09:11:52.575Z,8.57
2023-03-12T09:12:54.994Z,9.18
2023-03-12T09:14:28.358Z,8.77
2023-03-12T09:15:19.684Z,9.05
2023-03-12T09:16:21.957Z,8.95
2023-03-12T09:17:24.332Z,8.40
2023-03-12T09:18:27.033Z,9.13
2023-03-12T09:19:29.790Z,8.10
2023-03-12T09:20:32.244Z,8.50
2023-03-12T09:21:34.659Z,10.18
2023-03-12T09:22:37.331Z,10.35
2023-03-12T09:23:41.074Z,9.35
2023-03-12T09:24:43.336Z,9.60
2023-03-12T09:25:46.677Z,8.85
2023-03-12T09:26:49.222Z,10.35
2023-03-12T09:27:51.670Z,8.02
2023-03-12T09:28:54.070Z,8.52
2023-03-12T09:30:00.598Z,9.70
2023-03-12T09:31:06.615Z,9.85
2023-03-12T09:32:09.545Z,9.35
2023-03-12T09:33:12.149Z,9.18
2023-03-12T09:34:14.572Z,9.75
2023-03-12T09:35:17.036Z,9.48
2023-03-12T09:36:19.333Z,10.88
2023-03-12T09:37:23.950Z,9.85
2023-03-12T09:38:27.002Z,9.20
2023-03-12T09:39:29.473Z,8.00
2023-03-12T09:40:36.360Z,9.95
2023-03-12T09:41:41.183Z,9.75
2023-03-12T09:42:55.926Z,9.25
2023-03-12T09:43:58.173Z,8.63
2023-03-12T09:45:04.490Z,8.40
2023-03-12T09:46:17.880Z,9.18
2023-03-12T09:47:33.539Z,8.63
2023-03-12T09:48:37.201Z,8.68
2023-03-12T09:49:45.318Z,9.73
2023-03-12T09:50:50.524Z,10.40
2023-03-12T09:51:56.956Z,9.57
2023-03-12T09:53:06.873Z,8.95
2023-03-12T09:54:42.811Z,8.77
2023-03-12T09:55:49.215Z,8.85
2023-03-12T09:56:52.630Z,9.10
2023-03-12T09:57:59.585Z,7.28
2023-03-12T09:59:01.967Z,8.65
2023-03-12T10:00:07.191Z,8.60
2023-03-12T10:01:38.901Z,7.63
2023-03-12T10:03:00.841Z,9.40
2023-03-12T10:04:29.688Z,8.40
2023-03-12T10:06:08.623Z,8.13
2023-03-12T10:07:27.526Z,8.88
2023-03-12T10:08:56.781Z,8.32
2023-03-12T10:10:27.825Z,10.13
2023-03-12T10:11:48.570Z,10.43
2023-03-12T10:13:15.106Z,9.52
2023-03-12T10:14:26.205Z,8.98
2023-03-12T10:15:54.845Z,9.68
2023-03-12T10:17:18.452Z,10.23
2023-03-12T10:19:07.155Z,10.30
2023-03-12T10:21:09.802Z,9.57
2023-03-12T10:22:35.182Z,10.77
2023-03-12T10:24:04.491Z,10.45
2023-03-12T10:25:32.045Z,10.38
2023-03-12T10:26:40.182Z,7.85
2023-03-12T10:27:43.301Z,9.02
2023-03-12T10:28:53.452Z,9.77
2023-03-12T10:29:57.589Z,10.05
2023-03-12T10:31:36.300Z,9.90
2023-03-12T11:11:48.235Z,8.43
2023-03-12T11:12:55.432Z,6.47
2023-03-12T11:14:19.993Z,6.30
2023-03-12T11:15:36.112Z,5.90
2023-03-12T11:16:38.447Z,5.88
2023-03-12T11:17:40.675Z,7.20
2023-03-12T11:19:25.822Z,6.15
2023-03-12T11:20:29.801Z,5.00
2023-03-12T11:21:40.351Z,5.53
2023-03-12T11:22:42.591Z,5.22
2023-03-12T11:24:07.223Z,5.10
2023-03-12T11:27:21.117Z,4.97
2023-03-12T11:28:29.725Z,4.90
2023-03-12T11:29:39.674Z,4.22
2023-03-12T11:30:43.807Z,4.47
2023-03-12T11:31:58.516Z,5.00
2023-03-12T11:33:02.127Z,4.35
2023-03-12T11:34:15.881Z,4.60
2023-03-12T11:35:27.197Z,4.20
2023-03-12T11:36:44.547Z,5.13
2023-03-12T11:38:00.172Z,4.47
2023-03-12T11:39:22.778Z,4.65
2023-03-12T11:40:49.632Z,4.80
2023-03-12T11:42:32.555Z,4.65
2023-03-12T11:44:15.820Z,4.00
2023-03-12T11:45:36.766Z,4.33
2023-03-12T11:47:00.408Z,4.32
2023-03-12T11:48:32.707Z,4.70
2023-03-12T11:49:51.209Z,4.22
2023-03-12T11:51:13.852Z,4.30
2023-03-12T11:52:31.393Z,4.22
2023-03-12T11:53:42.243Z,4.35
2023-03-12T11:55:32.228Z,4.55
2023-03-12T11:56:58.935Z,4.47
2023-03-12T11:58:14.467Z,4.55
2023-03-12T11:59:50.642Z,4.22
2023-03-12T12:00:53.034Z,4.07
2023-03-12T12:02:00.848Z,4.47
2023-03-12T12:03:18.414Z,4.50
2023-03-12T12:04:52.568Z,4.45
2023-03-12T12:06:13.376Z,4.60
2023-03-12T12:07:41.005Z,4.43
2023-03-12T12:09:04.676Z,4.10
2023-03-12T12:10:30.653Z,4.25
2023-03-12T12:11:38.767Z,4.65
2023-03-12T12:12:50.016Z,4.28
2023-03-12T12:14:13.400Z,4.72
2023-03-12T12:15:31.407Z,4.22
2023-03-12T12:16:47.495Z,3.92
2023-03-12T12:17:59.432Z,5.00
2023-03-12T12:19:30.151Z,4.80
2023-03-12T12:20:51.582Z,4.47
2023-03-12T12:22:08.487Z,4.20
2023-03-12T12:23:28.290Z,3.72
2023-03-12T12:25:11.285Z,4.35
2023-03-12T12:26:21.610Z,4.05
2023-03-12T12:27:30.190Z,4.10
2023-03-12T12:28:39.779Z,4.18
2023-03-12T12:30:10.238Z,4.80
2023-03-12T12:31:27.156Z,3.70
2023-03-12T12:32:42.952Z,3.97
2023-03-12T12:33:50.678Z,3.70
2023-03-12T12:35:08.231Z,4.10
2023-03-12T12:36:10.956Z,3.97
2023-03-12T12:37:39.230Z,3.40
2023-03-12T12:38:43.769Z,3.88
2023-03-12T12:39:52.049Z,4.30
2023-03-12T12:41:01.351Z,3.72
2023-03-12T12:42:07.828Z,3.45
2023-03-12T12:43:36.934Z,3.85
2023-03-12T12:44:46.623Z,4.47
2023-03-12T12:45:52.571Z,4.07
2023-03-12T12:47:05.350Z,3.85
2023-03-12T12:48:17.516Z,5.20
2023-03-12T12:49:30.324Z,3.40
2023-03-12T12:50:38.292Z,3.40
2023-03-12T12:51:46.177Z,4.10
2023-03-12T12:53:20.460Z,4.22
2023-03-12T12:54:22.665Z,3.97
2023-03-12T12:55:47.947Z,3.05
2023-03-12T12:57:00.745Z,3.78
2023-03-12T12:58:15.773Z,3.50
2023-03-12T12:59:52.070Z,4.00
2023-03-12T13:00:55.931Z,3.53
2023-03-12T13:02:01.320Z,3.13
2023-03-12T13:03:04.261Z,2.70
2023-03-12T13:04:13.448Z,3.08
2023-03-12T13:05:22.762Z,3.25
2023-03-12T13:06:29.956Z,2.80
2023-03-12T13:07:34.256Z,4.00
2023-03-12T13:08:39.329Z,3.85
2023-03-12T13:09:46.184Z,3.63
2023-03-12T13:10:58.152Z,5.05
2023-03-12T13:12:47.655Z,3.33
2023-03-12T13:14:11.342Z,3.25
2023-03-12T13:15:28.708Z,3.25
2023-03-12T13:16:38.616Z,2.80
2023-03-12T13:18:03.970Z,3.15
2023-03-12T13:19:27.573Z,4.20
2023-03-12T13:21:07.024Z,3.75
2023-03-12T13:22:12.766Z,3.92
2023-03-12T13:23:34.045Z,3.67
2023-03-12T13:25:07.833Z,3.40
2023-03-12T13:26:47.496Z,3.72
2023-03-12T13:27:58.439Z,4.10
2023-03-12T13:29:32.908Z,3.20
2023-03-12T13:30:35.128Z,3.63
2023-03-12T13:31:38.628Z,3.40
2023-03-12T13:32:49.897Z,3.40
2023-03-12T13:34:00.570Z,3.72
2023-03-12T13:35:14.796Z,3.63
2023-03-12T13:36:17.209Z,3.80
2023-03-12T13:37:29.335Z,3.50
2023-03-12T13:38:37.277Z,3.78
2023-03-12T13:39:44.856Z,3.80
2023-03-12T13:41:00.880Z,3.70
2023-03-12T13:42:24.983Z,3.13
2023-03-12T13:43:38.997Z,3.70
2023-03-12T13:44:43.562Z,3.63
2023-03-12T13:46:06.735Z,3.95
2023-03-12T13:47:11.931Z,4.03
2023-03-12T13:48:18.118Z,3.40
2023-03-12T13:49:21.188Z,3.38
2023-03-12T13:50:25.052Z,3.53
2023-03-12T13:51:28.197Z,3.90
2023-03-12T13:52:32.098Z,3.88
2023-03-12T13:53:39.253Z,3.75
2023-03-12T13:55:00.160Z,3.72
2023-03-12T13:56:16.744Z,3.40
2023-03-12T13:57:40.505Z,4.22
2023-03-12T13:58:57.254Z,4.65
2023-03-12T14:00:00.134Z,3.30
2023-03-12T14:01:06.791Z,3.90
2023-03-12T14:02:21.164Z,4.10
2023-03-12T14:03:41.681Z,3.95
2023-03-12T14:04:44.363Z,3.88
2023-03-12T14:06:07.405Z,4.30
2023-03-12T14:08:24.769Z,4.07
2023-03-12T14:09:56.859Z,3.60
2023-03-12T14:11:37.602Z,3.78
2023-03-12T14:12:51.544Z,3.70
2023-03-12T14:14:12.889Z,3.67
2023-03-12T14:15:40.048Z,4.00
2023-03-12T14:16:46.185Z,3.47
2023-03-12T14:17:57.022Z,3.60
2023-03-12T14:19:05.051Z,4.13
2023-03-12T14:20:13.885Z,3.95
2023-03-12T14:21:21.856Z,3.95
2023-03-12T14:22:25.305Z,4.32
2023-03-12T14:23:39.042Z,3.83
2023-03-12T14:24:50.280Z,4.15
2023-03-12T14:25:57.960Z,3.90
2023-03-12T14:27:03.965Z,3.30
2023-03-12T14:28:24.322Z,4.43
2023-03-12T14:29:38.919Z,4.13
2023-03-12T14:30:55.639Z,3.90
2023-03-12T14:32:03.417Z,3.60
2023-03-12T14:33:06.738Z,4.78
2023-03-12T14:34:18.680Z,3.90
2023-03-12T14:35:28.374Z,4.22
2023-03-12T14:36:46.695Z,4.32
2023-03-12T14:38:06.777Z,3.80
2023-03-12T14:39:22.497Z,3.95
2023-03-12T14:40:25.572Z,3.83
2023-03-12T14:41:54.176Z,4.65
2023-03-12T14:42:59.848Z,4.28
2023-03-12T14:44:23.855Z,4.15
2023-03-12T14:45:28.070Z,4.55
2023-03-12T14:46:30.795Z,3.58
2023-03-12T14:47:44.131Z,3.92
2023-03-12T14:48:51.823Z,3.95
2023-03-12T14:49:57.779Z,3.53
2023-03-12T14:51:01.929Z,3.83
2023-03-12T14:52:04.733Z,4.75
2023-03-12T14:53:34.220Z,3.95
2023-03-12T14:54:39.101Z,4.20
2023-03-12T14:55:41.552Z,3.63
2023-03-12T14:56:44.675Z,3.85
2023-03-12T14:57:49.024Z,3.83
2023-03-12T14:58:52.786Z,4.15
2023-03-12T14:59:59.999Z,4.22
2023-03-12T15:01:09.580Z,3.50
2023-03-12T15:02:14.991Z,4.20
2023-03-12T15:03:17.815Z,4.47
2023-03-12T15:04:23.820Z,4.20
2023-03-12T15:05:26.861Z,3.88
2023-03-12T15:06:32.784Z,3.97
2023-03-12T15:07:40.112Z,4.35
2023-03-12T15:08:44.429Z,3.60
2023-03-12T15:09:52.621Z,3.80
2023-03-12T15:10:58.438Z,3.97
2023-03-12T15:12:07.258Z,4.00
2023-03-12T15:13:12.755Z,4.28
2023-03-12T15:14:16.674Z,4.45
2023-03-12T15:15:32.161Z,3.90
2023-03-12T15:16:35.626Z,4.22
2023-03-12T15:17:38.131Z,4.50
2023-03-12T15:18:40.875Z,4.03
2023-03-12T15:19:43.522Z,4.55
2023-03-12T15:20:48.439Z,6.03
2023-03-12T15:21:51.329Z,5.05
2023-03-12T15:22:53.866Z,6.30
2023-03-12T15:23:56.252Z,4.97
2023-03-12T15:25:03.509Z,4.65
2023-03-12T15:26:30.185Z,4.43
2023-03-12T15:27:34.029Z,3.75
2023-03-12T15:28:36.745Z,4.35
2023-03-12T15:29:41.539Z,4.57
2023-03-12T15:30:44.637Z,4.55
2023-03-12T15:31:49.001Z,4.32
2023-03-12T15:33:09.157Z,3.95
2023-03-12T15:34:29.927Z,3.90
2023-03-12T15:35:32.777Z,3.50
2023-03-12T15:36:47.732Z,4.10
2023-03-12T15:37:53.378Z,3.83